createdAt,value
2019-02-22T00:02:09.601Z,4.83
2019-02-22T00:07:15.338Z,5.20
2019-02-22T00:12:21.320Z,4.57
2019-02-22T00:17:25.787Z,5.13
2019-02-22T00:22:30.767Z,4.90
2019-02-22T00:27:35.871Z,4.70
2019-02-22T00:32:42.418Z,5.37
2019-02-22T00:37:46.414Z,4.73
2019-02-22T00:42:50.714Z,4.70
2019-02-22T00:47:54.911Z,4.43
2019-02-22T00:52:59.298Z,4.60
2019-02-22T00:58:03.482Z,5.23
2019-02-22T01:03:08.012Z,4.87
2019-02-22T01:08:12.317Z,4.73
2019-02-22T01:13:16.640Z,4.20
2019-02-22T01:18:20.939Z,4.00
2019-02-22T01:23:26.330Z,4.90
2019-02-22T01:28:30.523Z,4.40
2019-02-22T01:33:35.977Z,4.40
2019-02-22T01:38:40.281Z,4.30
2019-02-22T01:43:44.458Z,4.60
2019-02-22T01:48:48.688Z,4.10
2019-02-22T01:53:54.043Z,4.20
2019-02-22T01:58:58.344Z,3.80
2019-02-22T02:04:02.503Z,4.03
2019-02-22T02:09:07.495Z,3.87
2019-02-22T02:14:12.554Z,4.03
2019-02-22T02:19:17.915Z,4.20
2019-02-22T02:24:22.290Z,4.00
2019-02-22T02:29:26.566Z,4.47
2019-02-22T02:34:30.744Z,3.33
2019-02-22T02:39:36.548Z,3.70
2019-02-22T02:44:40.794Z,3.20
2019-02-22T02:49:45.565Z,4.03
2019-02-22T02:54:49.747Z,3.37
2019-02-22T02:59:53.895Z,3.70
2019-02-22T03:04:58.238Z,3.37
2019-02-22T03:10:02.834Z,3.17
2019-02-22T03:15:08.673Z,3.60
2019-02-22T03:20:14.471Z,3.60
2019-02-22T03:25:19.344Z,2.80
2019-02-22T03:30:23.658Z,3.40
2019-02-22T03:35:27.879Z,2.93
2019-02-22T03:40:32.144Z,3.13
2019-02-22T03:45:36.703Z,2.63
2019-02-22T03:50:41.130Z,2.57
2019-02-22T03:55:45.502Z,2.60
2019-02-22T04:00:49.687Z,2.80
2019-02-22T04:05:54.881Z,3.00
2019-02-22T04:10:59.347Z,3.07
2019-02-22T04:16:04.031Z,3.13
2019-02-22T04:21:09.385Z,2.50
2019-02-22T04:26:13.773Z,2.13
2019-02-22T04:31:17.931Z,2.50
2019-02-22T04:36:22.217Z,2.57
2019-02-22T04:41:26.826Z,2.23
2019-02-22T04:46:30.993Z,2.23
2019-02-22T04:51:35.255Z,2.80
2019-02-22T04:56:39.445Z,2.37
2019-02-22T05:01:44.242Z,2.67
2019-02-22T05:06:48.413Z,2.43
2019-02-22T05:11:52.598Z,2.60
2019-02-22T05:16:56.816Z,6.30
2019-02-22T05:22:01.126Z,10.63
2019-02-22T05:27:05.975Z,8.10
2019-02-22T05:32:10.770Z,7.60
2019-02-22T05:37:15.178Z,7.57
2019-02-22T05:42:22.986Z,7.70
2019-02-22T05:47:25.759Z,6.20
2019-02-22T05:52:29.949Z,6.03
2019-02-22T05:57:34.582Z,6.47
2019-02-22T06:02:38.856Z,5.50
2019-02-22T06:07:43.116Z,5.63
2019-02-22T06:12:47.473Z,4.83
2019-02-22T06:17:51.691Z,4.90
2019-02-22T06:22:56.003Z,4.80
2019-02-22T06:28:00.844Z,5.70
2019-02-22T06:33:05.397Z,4.57
2019-02-22T06:38:09.796Z,4.43
2019-02-22T06:43:15.646Z,4.50
2019-02-22T06:48:19.862Z,5.30
2019-02-22T06:53:24.281Z,4.30
2019-02-22T06:58:28.698Z,5.53
2019-02-22T07:03:32.897Z,4.63
2019-02-22T07:08:37.223Z,4.47
2019-02-22T07:13:41.449Z,4.20
2019-02-22T07:18:45.804Z,4.87
2019-02-22T07:23:50.445Z,4.57
2019-02-22T07:28:54.643Z,4.60
2019-02-22T07:33:58.811Z,5.63
2019-02-22T07:39:03.079Z,4.60
2019-02-22T07:44:07.962Z,5.30
2019-02-22T07:49:24.491Z,5.37
2019-02-22T07:54:28.712Z,4.60
2019-02-22T07:59:32.858Z,4.47
2019-02-22T08:04:37.212Z,5.60
2019-02-22T08:09:42.082Z,5.10
2019-02-22T08:14:47.166Z,5.27
2019-02-22T08:19:51.347Z,4.90
2019-02-22T08:24:55.902Z,5.13
2019-02-22T08:30:00.640Z,8.07
2019-02-22T08:35:06.407Z,10.00
2019-02-22T08:40:12.158Z,11.57
2019-02-22T08:45:17.891Z,12.93
2019-02-22T08:50:23.101Z,13.67
2019-02-22T08:55:27.887Z,14.20
2019-02-22T09:00:32.109Z,14.53
2019-02-22T09:05:37.061Z,14.73
2019-02-22T09:10:43.777Z,13.87
2019-02-22T09:15:49.555Z,14.10
2019-02-22T09:20:54.539Z,16.77
2019-02-22T09:25:58.826Z,14.57
2019-02-22T09:31:03.033Z,14.77
2019-02-22T09:36:07.541Z,13.93
2019-02-22T09:41:13.293Z,13.43
2019-02-22T09:46:17.568Z,12.73
2019-02-22T09:51:21.807Z,11.80
2019-02-22T09:56:27.166Z,11.57
2019-02-22T10:01:31.476Z,12.13
2019-02-22T10:06:35.990Z,11.47
2019-02-22T10:11:41.709Z,10.90
2019-02-22T10:16:46.013Z,10.37
2019-02-22T10:21:51.706Z,10.03
2019-02-22T10:26:55.989Z,9.83
2019-02-22T10:32:00.384Z,9.93
2019-02-22T10:37:04.749Z,9.07
2019-02-22T10:42:10.517Z,9.10
2019-02-22T10:47:14.849Z,9.07
2019-02-22T10:52:19.042Z,9.47
2019-02-22T10:57:23.471Z,8.17
2019-02-22T11:02:27.673Z,9.30
2019-02-22T11:07:32.562Z,7.77
2019-02-22T11:12:38.115Z,7.57
2019-02-22T11:17:42.927Z,8.37
2019-02-22T11:22:48.623Z,8.17
2019-02-22T11:27:53.033Z,7.60
2019-02-22T11:32:57.321Z,7.73
2019-02-22T11:38:01.587Z,7.63
2019-02-22T11:43:06.238Z,7.07
2019-02-22T11:48:11.993Z,7.40
2019-02-22T11:53:17.756Z,6.43
2019-02-22T11:58:22.282Z,6.80
2019-02-22T12:03:26.979Z,6.43
2019-02-22T12:08:31.788Z,6.07
2019-02-22T12:13:35.983Z,6.33
2019-02-22T12:18:40.877Z,6.33
2019-02-22T12:23:45.986Z,6.07
2019-02-22T12:28:50.463Z,5.93
2019-02-22T12:33:54.778Z,5.93
2019-02-22T12:38:59.534Z,6.37
2019-02-22T12:44:04.273Z,5.87
2019-02-22T12:49:08.858Z,5.93
2019-02-22T12:54:13.357Z,5.30
2019-02-22T12:59:18.406Z,5.17
2019-02-22T13:04:24.208Z,5.53
2019-02-22T13:09:36.276Z,5.33
2019-02-22T13:14:35.312Z,5.37
2019-02-22T13:19:39.472Z,5.20
2019-02-22T13:24:44.316Z,5.20
2019-02-22T13:29:48.583Z,5.33
2019-02-22T13:34:52.802Z,5.73
2019-02-22T13:39:57.014Z,6.30
2019-02-22T13:45:01.950Z,5.37
2019-02-22T13:50:10.381Z,5.90
2019-02-22T13:55:16.132Z,5.93
2019-02-22T14:00:20.754Z,5.90
2019-02-22T14:05:24.980Z,5.67
2019-02-22T14:10:29.313Z,5.40
2019-02-22T14:15:37.887Z,6.23
2019-02-22T14:20:39.472Z,6.00
2019-02-22T14:25:43.915Z,5.70
2019-02-22T14:30:48.330Z,5.50
2019-02-22T14:35:54.054Z,5.20
2019-02-22T14:40:58.351Z,5.97
2019-02-22T14:46:02.501Z,5.13
2019-02-22T14:51:06.923Z,5.20
2019-02-22T14:56:11.323Z,4.90
2019-02-22T15:01:16.066Z,5.30
2019-02-22T15:06:21.978Z,5.03
2019-02-22T15:11:26.390Z,4.87
2019-02-22T15:16:30.644Z,4.93
2019-02-22T15:21:35.199Z,5.27
2019-02-22T15:26:39.396Z,5.20
2019-02-22T15:31:43.720Z,4.70
2019-02-22T15:36:48.936Z,4.77
2019-02-22T15:41:53.753Z,4.20
2019-02-22T15:46:58.522Z,4.13
2019-02-22T15:52:02.722Z,4.13
2019-02-22T15:57:07.946Z,4.07
2019-02-22T16:02:12.389Z,3.90
2019-02-22T16:07:16.926Z,3.33
2019-02-22T16:12:22.353Z,3.80
2019-02-22T16:17:26.719Z,3.30
2019-02-22T16:22:31.098Z,3.33
2019-02-22T16:27:35.594Z,3.27
2019-02-22T16:32:40.239Z,3.20
2019-02-22T16:37:44.832Z,3.30
2019-02-22T16:42:49.039Z,3.30
2019-02-22T16:47:54.193Z,2.70
2019-02-22T16:52:58.755Z,2.83
2019-02-22T16:58:03.523Z,2.93
2019-02-22T17:03:08.271Z,3.00
2019-02-22T17:08:12.683Z,3.50
2019-02-22T17:13:18.874Z,3.17
2019-02-22T17:18:23.203Z,3.03
2019-02-22T17:23:27.508Z,3.03
2019-02-22T17:28:31.796Z,3.47
2019-02-22T17:33:36.155Z,3.57
2019-02-22T17:38:40.550Z,2.07
2019-02-22T17:43:46.065Z,2.77
2019-02-22T17:48:50.262Z,2.63
2019-02-22T17:53:56.031Z,2.93
2019-02-22T17:59:00.336Z,2.87
2019-02-22T18:04:05.023Z,2.80
2019-02-22T18:09:10.248Z,2.40
2019-02-22T18:14:15.071Z,2.57
2019-02-22T18:19:19.589Z,2.93
2019-02-22T18:24:23.980Z,2.77
2019-02-22T18:29:35.407Z,7.40
2019-02-22T18:34:34.961Z,10.17
2019-02-22T18:39:39.590Z,11.83
2019-02-22T18:44:43.886Z,10.93
2019-02-22T18:49:48.487Z,10.20
2019-02-22T18:54:52.982Z,8.73
2019-02-22T18:59:57.247Z,8.00
2019-02-22T19:05:13.560Z,8.27
2019-02-22T19:10:17.810Z,8.00
2019-02-22T19:15:22.187Z,10.70
2019-02-22T19:20:26.525Z,11.93
2019-02-22T19:25:30.835Z,11.73
2019-02-22T19:30:35.245Z,12.60
2019-02-22T19:35:39.682Z,11.60
2019-02-22T19:40:45.118Z,11.23
2019-02-22T19:45:49.381Z,10.97
2019-02-22T19:56:31.051Z,9.60
2019-02-22T20:06:55.693Z,8.80
2019-02-22T20:12:00.355Z,8.83
2019-02-22T20:17:04.842Z,9.43
2019-02-22T20:22:11.009Z,8.23
2019-02-22T20:27:15.565Z,8.13
2019-02-22T20:32:19.941Z,7.97
2019-02-22T20:37:24.573Z,7.43
2019-02-22T20:42:28.929Z,7.67
2019-02-22T20:47:33.590Z,7.53
2019-02-22T20:52:37.958Z,7.27
2019-02-22T20:57:42.738Z,6.60
2019-02-22T21:02:46.910Z,6.37
2019-02-22T21:07:51.317Z,6.80
2019-02-22T21:12:55.519Z,6.87
2019-02-22T21:24:26.111Z,7.00
2019-02-22T21:29:30.381Z,5.90
2019-02-22T21:34:34.586Z,6.87
2019-02-22T21:39:40.705Z,5.33
2019-02-22T21:44:44.999Z,6.43
2019-02-22T21:49:49.254Z,5.67
2019-02-22T21:54:53.810Z,6.03
2019-02-22T21:59:58.006Z,6.10
2019-02-22T22:05:02.309Z,5.07
2019-02-22T22:10:06.930Z,5.77
2019-02-22T22:15:12.585Z,5.70
2019-02-22T22:20:17.967Z,5.33
2019-02-22T22:25:22.167Z,5.60
2019-02-22T22:30:26.847Z,4.73
2019-02-22T22:35:31.043Z,5.70
2019-02-22T22:40:35.912Z,4.77
2019-02-22T22:45:40.060Z,5.57
2019-02-22T22:50:44.731Z,4.73
2019-02-22T22:55:49.577Z,5.03
2019-02-22T23:00:59.331Z,5.00
2019-02-22T23:06:04.309Z,5.57
2019-02-22T23:11:10.039Z,4.80
2019-02-22T23:16:15.369Z,5.30
2019-02-22T23:21:19.882Z,4.93
2019-02-22T23:26:25.595Z,5.00
2019-02-22T23:31:29.778Z,5.07
2019-02-22T23:36:34.054Z,5.37
2019-02-22T23:41:38.508Z,5.60
2019-02-22T23:46:42.722Z,4.80
2019-02-22T23:51:47.217Z,4.57
2019-02-22T23:56:51.430Z,4.27
